createdAt,value
2022-12-18T00:00:25.645Z,16.83
2022-12-18T00:02:54.573Z,20.05
2022-12-18T00:05:23.500Z,14.73
2022-12-18T00:07:52.317Z,17.70
2022-12-18T00:10:21.117Z,14.48
2022-12-18T00:12:49.932Z,12.98
2022-12-18T00:15:18.791Z,12.52
2022-12-18T00:17:48.825Z,11.93
2022-12-18T00:20:22.745Z,16.07
2022-12-18T00:22:51.534Z,16.60
2022-12-18T00:25:20.367Z,15.25
2022-12-18T00:27:49.185Z,11.85
2022-12-18T00:30:18.185Z,18.33
2022-12-18T00:32:48.376Z,14.40
2022-12-18T00:35:17.454Z,10.98
2022-12-18T00:37:46.280Z,15.35
2022-12-18T00:40:15.054Z,14.43
2022-12-18T00:42:57.949Z,13.93
2022-12-18T00:45:30.419Z,12.50
2022-12-18T00:48:00.656Z,10.23
2022-12-18T00:50:29.863Z,13.25
2022-12-18T00:52:58.665Z,13.38
2022-12-18T00:55:27.856Z,12.65
2022-12-18T00:57:56.852Z,18.70
2022-12-18T01:00:26.199Z,12.80
2022-12-18T01:02:55.069Z,14.30
2022-12-18T01:05:25.120Z,11.98
2022-12-18T01:07:54.207Z,11.30
2022-12-18T01:10:23.163Z,11.50
2022-12-18T01:12:52.045Z,10.32
2022-12-18T01:15:21.504Z,10.18
2022-12-18T01:17:50.356Z,11.70
2022-12-18T01:20:19.196Z,11.38
2022-12-18T01:22:49.524Z,12.57
2022-12-18T01:25:18.541Z,12.65
2022-12-18T01:27:47.465Z,11.15
2022-12-18T01:30:16.317Z,9.88
2022-12-18T01:32:45.169Z,11.52
2022-12-18T01:35:13.990Z,11.97
2022-12-18T01:37:42.817Z,11.68
2022-12-18T01:40:13.844Z,12.75
2022-12-18T01:42:42.726Z,10.38
2022-12-18T01:45:28.602Z,10.35
2022-12-18T01:47:59.818Z,10.87
2022-12-18T01:50:34.127Z,11.73
2022-12-18T01:53:09.079Z,11.82
2022-12-18T01:55:47.374Z,10.07
2022-12-18T01:58:16.434Z,12.23
2022-12-18T02:00:45.839Z,10.17
2022-12-18T02:03:15.436Z,10.50
2022-12-18T02:05:50.014Z,10.45
2022-12-18T02:08:23.725Z,11.63
2022-12-18T02:11:04.655Z,9.32
2022-12-18T02:13:44.281Z,7.63
2022-12-18T02:16:24.328Z,11.38
2022-12-18T02:18:59.847Z,9.95
2022-12-18T02:21:45.759Z,9.30
2022-12-18T02:24:30.057Z,10.20
2022-12-18T02:27:03.619Z,10.83
2022-12-18T02:29:38.020Z,10.35
2022-12-18T02:32:13.300Z,11.68
2022-12-18T02:34:43.419Z,12.48
2022-12-18T02:37:15.279Z,16.20
2022-12-18T02:39:46.284Z,15.70
2022-12-18T02:42:16.895Z,12.55
2022-12-18T02:44:46.587Z,13.23
2022-12-18T02:47:17.295Z,11.68
2022-12-18T02:49:57.287Z,10.95
2022-12-18T02:52:35.635Z,9.43
2022-12-18T02:55:19.887Z,10.68
2022-12-18T02:57:55.654Z,11.80
2022-12-18T03:00:29.789Z,11.98
2022-12-18T03:03:05.519Z,13.02
2022-12-18T03:05:40.219Z,12.70
2022-12-18T03:08:14.426Z,12.63
2022-12-18T03:10:52.098Z,15.05
2022-12-18T03:13:33.668Z,13.15
2022-12-18T03:16:03.911Z,10.77
2022-12-18T03:18:39.382Z,10.97
2022-12-18T03:21:10.506Z,8.77
2022-12-18T03:23:43.966Z,10.60
2022-12-18T03:26:16.514Z,10.15
2022-12-18T03:28:53.799Z,13.02
2022-12-18T03:31:25.415Z,9.90
2022-12-18T03:33:57.229Z,12.80
2022-12-18T03:36:26.409Z,17.65
2022-12-18T03:38:55.349Z,20.55
2022-12-18T03:41:33.458Z,19.27
2022-12-18T03:44:13.041Z,19.20
2022-12-18T03:46:48.409Z,18.23
2022-12-18T03:49:26.274Z,17.95
2022-12-18T03:52:03.980Z,17.67
2022-12-18T03:54:33.908Z,18.27
2022-12-18T03:57:08.118Z,19.47
2022-12-18T03:59:40.272Z,16.90
2022-12-18T04:02:10.828Z,16.98
2022-12-18T04:04:41.326Z,14.32
2022-12-18T04:07:10.903Z,16.08
2022-12-18T04:09:39.863Z,16.00
2022-12-18T04:12:11.702Z,15.32
2022-12-18T04:14:41.923Z,12.73
2022-12-18T04:17:10.810Z,14.02
2022-12-18T04:19:39.647Z,15.30
2022-12-18T04:22:10.992Z,13.73
2022-12-18T04:24:40.182Z,16.52
2022-12-18T04:27:09.132Z,11.73
2022-12-18T04:29:37.935Z,14.45
2022-12-18T04:32:08.264Z,13.75
2022-12-18T04:34:37.105Z,12.63
2022-12-18T04:37:05.944Z,13.07
2022-12-18T04:39:34.830Z,14.73
2022-12-18T04:42:03.695Z,14.13
2022-12-18T04:44:32.533Z,16.63
2022-12-18T04:47:01.379Z,12.13
2022-12-18T04:49:31.322Z,13.25
2022-12-18T04:52:00.123Z,14.98
2022-12-18T04:54:29.161Z,14.00
2022-12-18T04:56:57.981Z,13.80
2022-12-18T04:59:26.815Z,15.97
2022-12-18T05:01:55.793Z,15.45
2022-12-18T05:04:24.762Z,13.50
2022-12-18T05:06:54.712Z,12.60
2022-12-18T05:09:23.844Z,14.05
2022-12-18T05:11:52.695Z,14.67
2022-12-18T05:14:21.724Z,13.80
2022-12-18T05:16:50.563Z,12.20
2022-12-18T05:19:19.612Z,15.43
2022-12-18T05:21:48.444Z,14.10
2022-12-18T05:24:18.577Z,14.43
2022-12-18T05:26:47.421Z,15.23
2022-12-18T05:29:16.253Z,14.15
2022-12-18T05:31:45.105Z,14.30
2022-12-18T05:34:14.176Z,15.40
2022-12-18T05:36:43.696Z,11.90
2022-12-18T05:39:13.683Z,12.73
2022-12-18T05:41:43.822Z,12.85
2022-12-18T05:44:13.029Z,12.50
2022-12-18T05:46:41.889Z,13.95
2022-12-18T05:49:10.764Z,11.90
2022-12-18T05:51:39.649Z,11.43
2022-12-18T05:54:09.303Z,14.88
2022-12-18T05:56:38.426Z,15.27
2022-12-18T05:59:08.406Z,14.65
2022-12-18T06:01:37.650Z,13.03
2022-12-18T06:04:06.960Z,13.27
2022-12-18T06:06:36.025Z,11.40
2022-12-18T06:09:09.470Z,17.10
2022-12-18T06:11:39.217Z,16.00
2022-12-18T06:14:09.909Z,11.37
2022-12-18T06:16:38.795Z,14.15
2022-12-18T06:19:08.454Z,16.88
2022-12-18T06:21:37.526Z,14.95
2022-12-18T06:24:06.897Z,13.73
2022-12-18T06:26:35.839Z,13.53
2022-12-18T06:29:04.674Z,14.38
2022-12-18T06:31:35.028Z,15.27
2022-12-18T06:34:06.673Z,11.70
2022-12-18T06:36:35.743Z,17.83
2022-12-18T06:39:04.972Z,14.50
2022-12-18T06:41:33.791Z,12.55
2022-12-18T06:44:02.610Z,15.98
2022-12-18T06:46:31.668Z,13.65
2022-12-18T06:49:01.634Z,22.63
2022-12-18T06:51:30.472Z,14.47
2022-12-18T06:53:59.339Z,17.20
2022-12-18T06:56:28.207Z,16.33
2022-12-18T06:58:57.234Z,15.65
2022-12-18T07:01:26.112Z,15.23
2022-12-18T07:03:55.926Z,14.90
2022-12-18T07:06:28.376Z,14.25
2022-12-18T07:08:57.801Z,15.18
2022-12-18T07:11:27.693Z,14.68
2022-12-18T07:13:56.621Z,15.88
2022-12-18T07:16:26.001Z,18.63
2022-12-18T07:18:56.279Z,23.75
2022-12-18T07:21:26.999Z,17.35
2022-12-18T07:23:55.817Z,16.02
2022-12-18T07:26:25.182Z,11.70
2022-12-18T07:28:58.593Z,17.53
2022-12-18T07:31:29.027Z,19.08
2022-12-18T07:33:58.182Z,21.58
2022-12-18T07:36:28.181Z,22.33
2022-12-18T07:38:57.142Z,17.02
2022-12-18T07:41:26.178Z,19.63
2022-12-18T07:43:55.076Z,14.88
2022-12-18T07:46:24.420Z,17.33
2022-12-18T07:48:53.292Z,14.55
2022-12-18T07:51:22.258Z,19.50
2022-12-18T07:53:52.713Z,19.13
2022-12-18T07:56:27.694Z,16.27
2022-12-18T07:58:57.740Z,16.13
2022-12-18T08:01:26.689Z,16.63
2022-12-18T08:03:55.700Z,22.80
2022-12-18T08:06:24.955Z,18.13
2022-12-18T08:08:56.416Z,17.88
2022-12-18T08:11:27.889Z,19.52
2022-12-18T08:13:57.618Z,18.20
2022-12-18T08:16:26.685Z,15.35
2022-12-18T08:18:55.889Z,18.77
2022-12-18T08:21:27.697Z,17.20
2022-12-18T08:24:02.720Z,17.50
2022-12-18T08:26:33.600Z,19.15
2022-12-18T08:29:02.807Z,20.08
2022-12-18T08:31:34.249Z,18.37
2022-12-18T08:34:03.145Z,25.23
2022-12-18T08:36:31.711Z,27.95
2022-12-18T08:39:01.654Z,30.48
2022-12-18T08:41:30.533Z,29.98
2022-12-18T08:44:17.247Z,33.77
2022-12-18T08:46:46.684Z,35.75
2022-12-18T08:49:15.876Z,32.15
2022-12-18T08:51:44.703Z,31.83
2022-12-18T08:54:15.935Z,27.50
2022-12-18T08:56:45.017Z,26.00
2022-12-18T08:59:19.317Z,23.05
2022-12-18T09:01:49.508Z,25.48
2022-12-18T09:04:18.745Z,22.30
2022-12-18T09:06:47.583Z,22.92
2022-12-18T09:09:17.580Z,24.83
2022-12-18T09:11:46.504Z,19.70
2022-12-18T09:14:15.385Z,25.15
2022-12-18T09:16:44.210Z,20.60
2022-12-18T09:19:13.221Z,22.88
2022-12-18T09:21:46.263Z,26.33
2022-12-18T09:24:18.955Z,21.60
2022-12-18T09:26:47.937Z,18.08
2022-12-18T09:29:18.789Z,16.48
2022-12-18T09:31:48.129Z,17.80
2022-12-18T09:34:16.734Z,19.47
2022-12-18T09:36:45.648Z,17.35
2022-12-18T09:39:17.977Z,19.55
2022-12-18T09:41:54.830Z,18.70
2022-12-18T09:44:27.397Z,21.25
2022-12-18T09:47:07.225Z,19.60
2022-12-18T09:49:41.192Z,21.30
2022-12-18T09:52:17.336Z,19.77
2022-12-18T09:54:52.871Z,18.38
2022-12-18T09:57:25.789Z,23.10
2022-12-18T09:59:59.520Z,29.50
2022-12-18T10:02:29.652Z,26.35
2022-12-18T10:05:13.680Z,29.50
2022-12-18T10:08:01.891Z,31.25
2022-12-18T10:10:42.077Z,30.95
2022-12-18T10:13:23.856Z,29.07
2022-12-18T10:16:08.860Z,31.70
2022-12-18T10:19:01.543Z,33.30
2022-12-18T10:21:36.340Z,30.75
2022-12-18T10:24:17.993Z,28.38
2022-12-18T10:26:49.209Z,23.20
2022-12-18T10:29:19.526Z,22.52
2022-12-18T10:31:48.358Z,24.95
2022-12-18T10:34:17.384Z,29.67
2022-12-18T10:36:46.352Z,33.15
2022-12-18T10:39:21.418Z,25.63
2022-12-18T10:41:51.400Z,28.67
2022-12-18T10:44:23.699Z,30.98
2022-12-18T10:46:57.221Z,31.75
2022-12-18T10:49:28.780Z,29.95
2022-12-18T10:52:10.169Z,26.53
2022-12-18T10:54:39.361Z,32.08
2022-12-18T10:57:31.827Z,31.02
2022-12-18T11:00:22.048Z,28.13
2022-12-18T11:02:51.036Z,27.67
2022-12-18T11:05:32.251Z,24.30
2022-12-18T11:08:02.510Z,27.83
2022-12-18T11:10:34.857Z,24.23
2022-12-18T11:13:20.435Z,28.73
2022-12-18T11:15:49.513Z,22.90
2022-12-18T11:18:22.519Z,31.10
2022-12-18T11:20:58.742Z,24.45
2022-12-18T11:23:28.954Z,27.33
2022-12-18T11:26:00.652Z,34.00
2022-12-18T11:28:50.120Z,40.03
2022-12-18T11:31:26.737Z,25.83
2022-12-18T11:34:28.755Z,42.83
2022-12-18T11:36:58.314Z,40.70
2022-12-18T11:39:37.709Z,30.23
2022-12-18T11:42:15.369Z,23.15
2022-12-18T11:44:51.179Z,27.53
2022-12-18T11:47:33.151Z,41.25
2022-12-18T11:50:05.317Z,42.15
2022-12-18T11:52:39.755Z,65.65
2022-12-18T11:55:16.305Z,33.47
2022-12-18T11:57:57.070Z,31.67
2022-12-18T12:00:27.487Z,37.28
2022-12-18T12:03:44.640Z,33.80
2022-12-18T12:06:22.007Z,27.92
2022-12-18T12:09:05.880Z,28.13
2022-12-18T12:11:46.066Z,33.07
2022-12-18T12:14:45.374Z,36.20
2022-12-18T12:17:26.084Z,34.35
2022-12-18T12:20:04.034Z,30.85
2022-12-18T12:22:41.988Z,27.55
2022-12-18T12:25:30.054Z,29.30
2022-12-18T12:28:15.576Z,32.17
2022-12-18T12:30:58.625Z,31.58
2022-12-18T12:33:42.627Z,28.10
2022-12-18T12:36:22.761Z,30.10
2022-12-18T12:38:57.704Z,25.17
2022-12-18T12:41:48.337Z,23.90
2022-12-18T12:44:23.424Z,29.08
2022-12-18T12:46:54.876Z,24.27
2022-12-18T12:49:29.128Z,25.50
2022-12-18T12:52:07.588Z,30.02
2022-12-18T12:54:37.734Z,26.52
2022-12-18T12:57:15.156Z,32.85
2022-12-18T12:59:53.496Z,28.38
2022-12-18T13:02:31.309Z,27.92
2022-12-18T13:05:08.983Z,29.43
2022-12-18T13:07:43.655Z,23.65
2022-12-18T13:10:33.666Z,32.83
2022-12-18T13:13:04.884Z,36.33
2022-12-18T13:15:40.273Z,29.02
2022-12-18T13:18:21.788Z,29.77
2022-12-18T13:20:59.770Z,28.92
2022-12-18T13:23:41.669Z,35.85
2022-12-18T13:26:35.457Z,31.23
2022-12-18T13:29:10.737Z,36.25
2022-12-18T13:32:22.441Z,37.37
2022-12-18T13:35:42.984Z,37.92
2022-12-18T13:38:24.646Z,32.50
2022-12-18T13:40:59.118Z,39.22
2022-12-18T13:43:44.035Z,35.33
2022-12-18T13:46:27.049Z,27.73
2022-12-18T13:49:01.935Z,27.05
2022-12-18T13:51:34.290Z,38.53
2022-12-18T13:54:04.931Z,35.25
2022-12-18T13:56:35.910Z,37.63
2022-12-18T13:59:24.535Z,31.07
2022-12-18T14:01:57.889Z,40.35
2022-12-18T14:04:30.091Z,42.78
2022-12-18T14:07:04.391Z,32.08
2022-12-18T14:09:37.335Z,36.53
2022-12-18T14:12:26.288Z,34.40
2022-12-18T14:14:56.035Z,42.28
2022-12-18T14:17:26.336Z,43.05
2022-12-18T14:19:55.175Z,34.83
2022-12-18T14:22:28.925Z,29.77
2022-12-18T14:25:17.915Z,32.37
2022-12-18T14:27:49.692Z,31.80
2022-12-18T14:30:30.539Z,32.58
2022-12-18T14:33:05.588Z,34.97
2022-12-18T14:35:35.667Z,36.78
2022-12-18T14:38:25.401Z,32.23
2022-12-18T14:41:01.931Z,33.92
2022-12-18T14:43:34.345Z,32.70
2022-12-18T14:46:04.213Z,30.20
2022-12-18T14:48:41.054Z,31.85
2022-12-18T14:51:18.002Z,28.47
2022-12-18T14:53:53.981Z,32.85
2022-12-18T14:56:26.035Z,29.00
2022-12-18T14:58:58.228Z,32.67
2022-12-18T15:01:30.691Z,30.30
2022-12-18T15:04:02.806Z,38.17
2022-12-18T15:06:35.840Z,35.50
2022-12-18T15:09:08.622Z,35.88
2022-12-18T15:11:48.444Z,36.67
2022-12-18T15:14:40.570Z,34.65
2022-12-18T15:17:20.106Z,34.00
2022-12-18T15:19:52.864Z,31.65
2022-12-18T15:22:28.560Z,27.98
2022-12-18T15:24:58.489Z,26.05
2022-12-18T15:27:36.924Z,26.70
2022-12-18T15:30:22.068Z,27.67
2022-12-18T15:32:51.423Z,36.28
2022-12-18T15:35:24.506Z,34.35
2022-12-18T15:37:54.298Z,34.90
2022-12-18T15:40:25.844Z,27.63
2022-12-18T15:43:28.538Z,26.53
2022-12-18T15:45:57.307Z,33.08
2022-12-18T15:48:25.828Z,35.63
2022-12-18T15:50:59.435Z,39.33
2022-12-18T15:53:33.183Z,31.58
2022-12-18T15:56:19.468Z,33.23
2022-12-18T15:58:48.838Z,28.08
2022-12-18T16:01:18.199Z,24.27
2022-12-18T16:03:46.879Z,25.35
2022-12-18T16:06:16.775Z,30.02
2022-12-18T16:08:45.488Z,25.13
2022-12-18T16:11:39.088Z,25.27
2022-12-18T16:14:17.775Z,27.88
2022-12-18T16:16:46.981Z,32.47
2022-12-18T16:19:15.659Z,34.75
2022-12-18T16:21:45.984Z,46.37
2022-12-18T16:24:18.398Z,31.35
2022-12-18T16:26:47.163Z,41.85
2022-12-18T16:29:15.950Z,40.83
2022-12-18T16:31:44.669Z,30.35
2022-12-18T16:34:23.205Z,32.83
2022-12-18T16:37:04.852Z,53.72
2022-12-18T16:39:35.477Z,52.08
2022-12-18T16:42:06.296Z,36.40
2022-12-18T16:44:35.112Z,34.13
2022-12-18T16:47:04.784Z,49.67
2022-12-18T16:49:33.478Z,57.95
2022-12-18T16:52:04.279Z,43.92
2022-12-18T16:54:33.954Z,39.33
2022-12-18T16:57:02.636Z,39.47
2022-12-18T16:59:31.475Z,37.67
2022-12-18T17:02:00.744Z,53.78
2022-12-18T17:04:29.331Z,53.25
2022-12-18T17:06:57.854Z,52.30
2022-12-18T17:09:27.926Z,39.25
2022-12-18T17:11:57.227Z,48.83
2022-12-18T17:14:27.129Z,45.30
2022-12-18T17:17:20.219Z,38.58
2022-12-18T17:19:45.786Z,34.25
2022-12-18T17:22:14.261Z,33.28
2022-12-18T17:24:44.158Z,36.73
2022-12-18T17:27:12.713Z,43.30
2022-12-18T17:29:47.445Z,44.53
2022-12-18T17:32:17.278Z,33.30
2022-12-18T17:34:45.838Z,37.92
2022-12-18T17:37:14.559Z,34.23
2022-12-18T17:39:44.679Z,41.22
2022-12-18T17:42:14.835Z,39.58
2022-12-18T17:44:44.225Z,41.95
2022-12-18T17:47:13.169Z,42.30
2022-12-18T17:49:42.627Z,45.67
2022-12-18T17:52:11.777Z,39.03
2022-12-18T17:54:42.423Z,38.83
2022-12-18T17:57:12.612Z,41.53
2022-12-18T17:59:41.084Z,43.20
2022-12-18T18:02:13.027Z,49.03
2022-12-18T18:04:42.842Z,40.25
2022-12-18T18:07:11.335Z,42.63
2022-12-18T18:09:39.894Z,51.33
2022-12-18T18:12:27.031Z,43.97
2022-12-18T18:14:57.039Z,42.23
2022-12-18T18:17:26.197Z,42.30
2022-12-18T18:19:54.980Z,40.03
2022-12-18T18:22:23.497Z,34.20
2022-12-18T18:24:53.232Z,34.78
2022-12-18T18:27:21.714Z,31.37
2022-12-18T18:29:50.495Z,42.05
2022-12-18T18:32:20.458Z,33.25
2022-12-18T18:34:49.583Z,29.75
2022-12-18T18:37:18.090Z,37.53
2022-12-18T18:39:46.555Z,44.37
2022-12-18T18:42:15.239Z,48.17
2022-12-18T18:44:48.743Z,43.33
2022-12-18T18:47:19.329Z,43.65
2022-12-18T18:49:48.197Z,33.28
2022-12-18T18:52:16.724Z,41.57
2022-12-18T18:55:11.183Z,32.92
2022-12-18T18:57:34.896Z,32.50
2022-12-18T19:00:03.623Z,27.88
2022-12-18T19:02:33.578Z,32.85
2022-12-18T19:05:02.223Z,30.37
2022-12-18T19:07:31.385Z,31.55
2022-12-18T19:10:07.246Z,30.50
2022-12-18T19:12:53.883Z,30.55
2022-12-18T19:15:22.746Z,31.48
2022-12-18T19:17:53.167Z,33.57
2022-12-18T19:20:21.755Z,28.63
2022-12-18T19:22:55.365Z,30.05
2022-12-18T19:25:38.595Z,32.05
2022-12-18T19:28:21.232Z,28.58
2022-12-18T19:30:55.340Z,29.93
2022-12-18T19:33:45.879Z,31.50
2022-12-18T19:36:20.302Z,32.65
2022-12-18T19:38:49.633Z,32.08
2022-12-18T19:41:19.735Z,29.38
2022-12-18T19:43:49.795Z,32.87
2022-12-18T19:46:21.140Z,22.40
2022-12-18T19:48:52.018Z,27.17
2022-12-18T19:51:23.120Z,36.20
2022-12-18T19:53:58.076Z,36.30
2022-12-18T19:56:29.924Z,30.57
2022-12-18T19:58:58.460Z,28.67
2022-12-18T20:01:29.608Z,25.88
2022-12-18T20:04:00.349Z,29.73
2022-12-18T20:06:32.356Z,29.15
2022-12-18T20:09:03.651Z,28.20
2022-12-18T20:11:32.278Z,24.73
2022-12-18T20:14:03.614Z,31.83
2022-12-18T20:16:32.211Z,26.88
2022-12-18T20:19:02.255Z,39.00
2022-12-18T20:21:31.247Z,43.60
2022-12-18T20:24:00.214Z,39.17
2022-12-18T20:26:28.973Z,35.90
2022-12-18T20:28:57.922Z,43.15
2022-12-18T20:31:26.893Z,38.28
2022-12-18T20:34:01.721Z,43.70
2022-12-18T20:36:35.139Z,35.92
2022-12-18T20:39:07.648Z,37.25
2022-12-18T20:41:39.106Z,37.90
2022-12-18T20:44:21.397Z,32.17
2022-12-18T20:46:56.953Z,38.37
2022-12-18T20:49:27.641Z,40.67
2022-12-18T20:51:59.735Z,37.47
2022-12-18T20:54:29.193Z,31.42
2022-12-18T20:56:58.644Z,29.98
2022-12-18T20:59:27.271Z,33.33
2022-12-18T21:01:56.237Z,28.70
2022-12-18T21:04:25.630Z,32.90
2022-12-18T21:07:02.310Z,32.33
2022-12-18T21:09:37.709Z,37.88
2022-12-18T21:12:29.163Z,39.73
2022-12-18T21:14:59.603Z,29.80
2022-12-18T21:17:28.499Z,30.25
2022-12-18T21:19:58.151Z,32.25
2022-12-18T21:22:28.470Z,25.30
2022-12-18T21:24:57.437Z,27.27
2022-12-18T21:27:25.960Z,31.80
2022-12-18T21:29:54.471Z,30.05
2022-12-18T21:32:23.982Z,32.53
2022-12-18T21:34:54.576Z,35.40
2022-12-18T21:37:23.097Z,31.77
2022-12-18T21:39:53.327Z,30.45
2022-12-18T21:42:53.877Z,32.88
2022-12-18T21:45:22.361Z,32.90
2022-12-18T21:47:50.879Z,28.67
2022-12-18T21:50:19.785Z,26.43
2022-12-18T21:52:48.248Z,26.25
2022-12-18T21:55:18.635Z,26.08
2022-12-18T21:57:47.559Z,23.60
2022-12-18T22:00:19.135Z,23.77
2022-12-18T22:03:17.684Z,30.93
2022-12-18T22:05:38.275Z,26.67
2022-12-18T22:08:07.876Z,26.60
2022-12-18T22:10:38.837Z,26.05
2022-12-18T22:13:10.079Z,37.78
2022-12-18T22:15:38.633Z,43.47
2022-12-18T22:18:07.222Z,50.63
2022-12-18T22:20:35.726Z,39.85
2022-12-18T22:23:05.978Z,31.92
2022-12-18T22:25:38.931Z,45.85
2022-12-18T22:28:27.261Z,37.57
2022-12-18T22:30:59.488Z,30.85
2022-12-18T22:33:28.944Z,40.47
2022-12-18T22:35:57.467Z,38.88
2022-12-18T22:38:26.285Z,42.00
2022-12-18T22:40:56.020Z,40.10
2022-12-18T22:43:26.063Z,31.10
2022-12-18T22:45:54.854Z,30.02
2022-12-18T22:48:23.402Z,31.33
2022-12-18T22:50:53.456Z,31.73
2022-12-18T22:53:27.657Z,28.13
2022-12-18T22:56:02.397Z,27.80
2022-12-18T22:58:32.272Z,26.55
2022-12-18T23:01:01.220Z,23.65
2022-12-18T23:03:29.916Z,29.77
2022-12-18T23:06:08.103Z,28.07
2022-12-18T23:08:36.879Z,27.77
2022-12-18T23:11:06.616Z,27.50
2022-12-18T23:13:37.387Z,21.17
2022-12-18T23:16:08.171Z,22.85
2022-12-18T23:18:37.343Z,22.17
2022-12-18T23:21:07.464Z,28.02
2022-12-18T23:23:38.368Z,27.52
2022-12-18T23:26:10.844Z,31.38
2022-12-18T23:28:41.754Z,31.00
2022-12-18T23:31:17.046Z,33.40
2022-12-18T23:33:47.204Z,26.33
2022-12-18T23:36:17.082Z,32.50
2022-12-18T23:38:50.551Z,26.73
2022-12-18T23:41:21.982Z,21.67
2022-12-18T23:43:52.660Z,22.47
2022-12-18T23:46:24.284Z,20.70
2022-12-18T23:48:53.979Z,21.70
2022-12-18T23:51:25.933Z,21.25
2022-12-18T23:53:55.343Z,25.48
2022-12-18T23:56:24.600Z,22.87
2022-12-18T23:58:54.547Z,22.45
